createdAt,value
2022-12-24T00:01:21.658Z,3.25
2022-12-24T00:06:20.718Z,3.38
2022-12-24T00:11:17.652Z,3.17
2022-12-24T00:16:14.259Z,3.50
2022-12-24T00:21:10.700Z,2.75
2022-12-24T00:26:07.104Z,2.22
2022-12-24T00:31:15.761Z,2.30
2022-12-24T00:36:12.525Z,1.60
2022-12-24T00:41:24.642Z,2.15
2022-12-24T00:46:22.324Z,2.83
2022-12-24T00:51:19.516Z,1.83
2022-12-24T00:56:15.905Z,2.80
2022-12-24T01:01:12.728Z,3.60
2022-12-24T01:06:11.899Z,3.60
2022-12-24T01:11:09.619Z,3.65
2022-12-24T01:16:15.455Z,3.37
2022-12-24T01:21:12.175Z,3.45
2022-12-24T01:26:12.092Z,2.85
2022-12-24T01:31:13.846Z,4.15
2022-12-24T01:36:11.199Z,2.67
2022-12-24T01:41:34.029Z,3.35
2022-12-24T01:46:32.554Z,3.60
2022-12-24T01:56:37.008Z,4.10
2022-12-24T02:01:34.528Z,5.40
2022-12-24T02:06:30.969Z,5.90
2022-12-24T02:11:27.251Z,5.40
2022-12-24T02:17:01.453Z,6.13
2022-12-24T02:22:04.706Z,6.38
2022-12-24T02:27:17.823Z,6.80
2022-12-24T02:32:27.743Z,6.80
2022-12-24T02:37:33.017Z,6.45
2022-12-24T02:42:37.637Z,5.00
2022-12-24T02:47:35.118Z,6.53
2022-12-24T02:52:39.845Z,6.95
2022-12-24T02:58:10.090Z,5.70
2022-12-24T03:03:21.177Z,5.78
2022-12-24T03:08:43.979Z,6.72
2022-12-24T03:13:41.538Z,6.63
2022-12-24T03:18:42.914Z,5.07
2022-12-24T03:23:39.642Z,5.93
2022-12-24T03:28:38.781Z,6.88
2022-12-24T03:33:35.821Z,4.65
2022-12-24T03:38:32.269Z,5.82
2022-12-24T03:43:28.896Z,5.18
2022-12-24T03:48:32.424Z,4.53
2022-12-24T03:53:29.235Z,5.63
2022-12-24T03:58:25.970Z,5.45
2022-12-24T04:03:22.397Z,4.10
2022-12-24T04:08:18.926Z,4.72
2022-12-24T04:13:15.215Z,5.25
2022-12-24T04:18:11.534Z,6.28
2022-12-24T04:23:07.830Z,4.40
2022-12-24T04:28:04.351Z,5.55
2022-12-24T04:33:00.660Z,5.15
2022-12-24T04:37:57.785Z,6.80
2022-12-24T04:42:54.084Z,5.35
2022-12-24T04:47:50.369Z,5.03
2022-12-24T04:52:46.718Z,4.88
2022-12-24T04:57:43.530Z,6.38
2022-12-24T05:07:38.209Z,4.25
2022-12-24T05:12:34.524Z,4.90
2022-12-24T05:17:30.903Z,5.22
2022-12-24T05:22:45.962Z,4.03
2022-12-24T05:27:47.446Z,5.32
2022-12-24T05:32:47.174Z,4.72
2022-12-24T05:37:43.452Z,6.88
2022-12-24T05:42:39.801Z,6.95
2022-12-24T05:47:42.884Z,6.07
2022-12-24T05:52:39.716Z,5.50
2022-12-24T05:57:36.068Z,6.38
2022-12-24T06:02:32.515Z,5.32
2022-12-24T06:07:28.880Z,6.78
2022-12-24T06:12:25.259Z,6.05
2022-12-24T06:17:21.603Z,7.05
2022-12-24T06:22:18.006Z,7.25
2022-12-24T06:27:14.375Z,8.65
2022-12-24T06:32:10.780Z,5.72
2022-12-24T06:37:07.331Z,8.07
2022-12-24T06:42:03.701Z,6.05
2022-12-24T06:47:00.526Z,7.63
2022-12-24T06:51:56.926Z,6.68
2022-12-24T06:56:53.273Z,6.47
2022-12-24T07:01:49.704Z,6.93
2022-12-24T07:06:46.139Z,6.72
2022-12-24T07:11:42.509Z,6.57
2022-12-24T07:16:38.915Z,9.43
2022-12-24T07:21:35.409Z,7.60
2022-12-24T07:26:31.837Z,7.75
2022-12-24T07:31:28.246Z,8.63
2022-12-24T07:36:24.893Z,8.05
2022-12-24T07:41:21.853Z,9.05
2022-12-24T07:46:18.312Z,8.43
2022-12-24T07:51:14.854Z,9.60
2022-12-24T07:56:13.094Z,9.70
2022-12-24T08:01:12.019Z,9.93
2022-12-24T08:06:08.543Z,10.82
2022-12-24T08:11:06.921Z,9.02
2022-12-24T08:16:03.464Z,10.50
2022-12-24T08:20:59.909Z,11.00
2022-12-24T08:25:56.306Z,10.68
2022-12-24T08:30:52.711Z,11.90
2022-12-24T08:35:50.613Z,12.85
2022-12-24T08:40:49.787Z,11.88
2022-12-24T08:45:49.145Z,11.63
2022-12-24T08:50:45.791Z,12.25
2022-12-24T08:55:42.382Z,12.27
2022-12-24T09:00:38.863Z,13.30
2022-12-24T09:05:40.214Z,12.40
2022-12-24T09:10:36.626Z,11.63
2022-12-24T09:15:33.176Z,8.85
2022-12-24T09:20:29.585Z,9.30
2022-12-24T09:25:25.999Z,8.82
2022-12-24T09:30:22.760Z,10.82
2022-12-24T09:35:19.180Z,8.45
2022-12-24T09:40:28.973Z,7.68
2022-12-24T09:45:32.677Z,9.07
2022-12-24T09:50:37.825Z,7.82
2022-12-24T09:55:44.459Z,8.65
2022-12-24T10:00:47.776Z,8.25
2022-12-24T10:06:02.708Z,7.53
2022-12-24T10:11:18.012Z,7.65
2022-12-24T10:16:29.590Z,7.20
2022-12-24T10:21:55.799Z,6.03
2022-12-24T10:27:05.908Z,6.57
2022-12-24T10:32:08.497Z,5.50
2022-12-24T10:37:05.012Z,7.35
2022-12-24T10:42:01.869Z,5.57
2022-12-24T10:46:59.451Z,5.57
2022-12-24T10:51:59.914Z,5.60
2022-12-24T10:57:00.214Z,4.72
2022-12-24T11:01:59.125Z,4.90
2022-12-24T11:07:05.989Z,4.18
2022-12-24T11:12:16.351Z,4.80
2022-12-24T11:17:22.254Z,4.45
2022-12-24T11:22:25.282Z,4.28
2022-12-24T11:27:41.718Z,5.53
2022-12-24T11:32:38.100Z,4.05
2022-12-24T11:37:34.781Z,4.20
2022-12-24T11:42:36.875Z,4.15
2022-12-24T11:47:38.830Z,4.75
2022-12-24T11:52:35.859Z,4.50
2022-12-24T11:57:46.603Z,5.35
2022-12-24T12:02:47.864Z,6.45
2022-12-24T12:07:50.591Z,5.10
2022-12-24T12:13:00.030Z,5.60
2022-12-24T12:18:15.203Z,6.65
2022-12-24T12:23:15.596Z,6.82
2022-12-24T12:28:20.507Z,6.32
2022-12-24T12:33:30.278Z,5.63
2022-12-24T12:38:31.659Z,5.63
2022-12-24T12:43:52.700Z,5.13
2022-12-24T12:49:04.812Z,4.78
2022-12-24T12:54:32.568Z,3.95
2022-12-24T12:59:51.209Z,6.03
2022-12-24T13:04:56.437Z,3.95
2022-12-24T13:09:59.383Z,4.40
2022-12-24T13:15:14.073Z,5.25
2022-12-24T13:20:23.036Z,4.78
2022-12-24T13:25:37.380Z,5.38
2022-12-24T13:30:39.600Z,4.25
2022-12-24T13:35:38.568Z,4.80
2022-12-24T13:40:35.306Z,4.78
2022-12-24T13:45:31.805Z,4.63
2022-12-24T13:50:39.423Z,5.40
2022-12-24T13:55:35.814Z,4.93
2022-12-24T14:00:43.148Z,5.40
2022-12-24T14:05:47.045Z,5.80
2022-12-24T14:11:14.554Z,5.25
2022-12-24T14:16:30.657Z,4.43
2022-12-24T14:21:32.004Z,4.45
2022-12-24T14:26:32.556Z,5.72
2022-12-24T14:31:28.973Z,4.35
2022-12-24T14:36:25.347Z,5.70
2022-12-24T14:42:00.131Z,4.82
2022-12-24T14:47:02.164Z,5.18
2022-12-24T14:52:37.673Z,6.35
2022-12-24T14:57:33.054Z,5.22
2022-12-24T15:02:47.635Z,5.50
2022-12-24T15:07:56.146Z,6.47
2022-12-24T15:17:50.876Z,7.78
2022-12-24T15:22:51.652Z,5.83
2022-12-24T15:27:48.211Z,6.32
2022-12-24T15:32:44.839Z,7.20
2022-12-24T15:37:42.405Z,6.65
2022-12-24T15:42:42.377Z,5.47
2022-12-24T15:47:48.186Z,5.82
2022-12-24T15:52:45.626Z,7.38
2022-12-24T15:57:41.975Z,6.70
2022-12-24T16:02:45.614Z,6.78
2022-12-24T16:08:05.321Z,6.68
2022-12-24T16:13:01.953Z,7.65
2022-12-24T16:17:58.416Z,5.95
2022-12-24T16:22:55.183Z,6.85
2022-12-24T16:27:52.744Z,6.40
2022-12-24T16:32:50.902Z,6.82
2022-12-24T16:37:47.304Z,7.75
2022-12-24T16:43:02.146Z,7.70
2022-12-24T16:47:59.422Z,7.05
2022-12-24T16:52:55.949Z,7.18
2022-12-24T16:57:52.308Z,6.80
2022-12-24T17:02:49.760Z,6.65
2022-12-24T17:07:46.376Z,6.87
2022-12-24T17:12:43.808Z,6.80
2022-12-24T17:17:40.201Z,7.60
2022-12-24T17:22:37.326Z,7.15
2022-12-24T17:27:33.840Z,7.15
2022-12-24T17:32:30.289Z,7.65
2022-12-24T17:37:26.945Z,7.00
2022-12-24T17:42:23.354Z,7.45
2022-12-24T17:47:19.749Z,7.25
2022-12-24T17:52:16.138Z,7.32
2022-12-24T17:57:12.767Z,6.25
2022-12-24T18:02:11.453Z,6.75
2022-12-24T18:07:08.151Z,8.15
2022-12-24T18:12:05.258Z,9.90
2022-12-24T18:17:01.713Z,7.78
2022-12-24T18:21:58.041Z,8.90
2022-12-24T18:26:55.131Z,9.65
2022-12-24T18:31:51.552Z,9.38
2022-12-24T18:36:54.614Z,8.57
2022-12-24T18:41:51.911Z,7.97
2022-12-24T18:46:48.263Z,7.63
2022-12-24T18:51:44.603Z,8.98
2022-12-24T18:56:40.921Z,8.07
2022-12-24T19:01:37.378Z,7.22
2022-12-24T19:06:33.923Z,8.05
2022-12-24T19:11:32.240Z,7.50
2022-12-24T19:16:30.201Z,7.80
2022-12-24T19:21:27.204Z,7.80
2022-12-24T19:26:23.879Z,8.48
2022-12-24T19:31:23.010Z,8.63
2022-12-24T19:36:22.137Z,7.63
2022-12-24T19:41:21.752Z,9.10
2022-12-24T19:46:21.386Z,9.00
2022-12-24T19:51:18.598Z,8.38
2022-12-24T19:56:17.151Z,7.93
2022-12-24T20:01:16.781Z,7.40
2022-12-24T20:06:15.320Z,8.48
2022-12-24T20:11:14.456Z,7.40
2022-12-24T20:16:20.977Z,6.68
2022-12-24T20:21:17.779Z,8.52
2022-12-24T20:26:16.699Z,5.82
2022-12-24T20:31:18.892Z,6.30
2022-12-24T20:36:17.885Z,6.78
2022-12-24T20:41:16.308Z,6.63
2022-12-24T20:46:12.786Z,6.43
2022-12-24T20:51:21.010Z,6.45
2022-12-24T20:56:20.372Z,7.53
2022-12-24T21:01:24.293Z,7.88
2022-12-24T21:06:22.155Z,6.03
2022-12-24T21:11:38.643Z,6.78
2022-12-24T21:16:36.449Z,6.85
2022-12-24T21:21:33.431Z,6.38
2022-12-24T21:26:29.903Z,8.10
2022-12-24T21:31:27.005Z,7.32
2022-12-24T21:36:24.094Z,6.88
2022-12-24T21:41:25.921Z,8.38
2022-12-24T21:46:25.937Z,7.97
2022-12-24T21:51:23.601Z,8.45
2022-12-24T21:56:21.298Z,8.65
2022-12-24T22:01:18.363Z,7.75
2022-12-24T22:06:35.155Z,6.78
2022-12-24T22:11:54.377Z,9.35
2022-12-24T22:16:51.847Z,9.27
2022-12-24T22:21:48.221Z,7.28
2022-12-24T22:26:45.241Z,7.18
2022-12-24T22:31:41.708Z,7.15
2022-12-24T22:36:38.070Z,7.75
2022-12-24T22:41:34.852Z,8.05
2022-12-24T22:46:31.317Z,7.57
2022-12-24T22:51:27.665Z,7.57
2022-12-24T22:56:24.070Z,8.30
2022-12-24T23:01:31.825Z,8.10
2022-12-24T23:06:28.937Z,6.60
2022-12-24T23:11:25.603Z,6.07
2022-12-24T23:16:22.209Z,6.90
2022-12-24T23:21:19.500Z,7.90
2022-12-24T23:26:18.825Z,6.93
2022-12-24T23:31:16.710Z,5.38
2022-12-24T23:36:13.409Z,7.23
2022-12-24T23:41:11.379Z,5.30
2022-12-24T23:46:07.727Z,6.93
2022-12-24T23:51:19.052Z,6.40
2022-12-24T23:56:15.656Z,5.65
